Time;durP1;ratioP1;P1;durP2;ratioP2;P2;SDS_P1;SDS_P2;PMS_P1;PMS_P2;Temp;Humidity;BMP_temperature;BMP_pressure;BME280_temperature;BME280_humidity;BME280_pressure;Samples;Min_cycle;Max_cycle;Signal;HPM_P1;HPM_P2
2023/09/07 00:01:55;;;;;;;7.90;3.40;;;22.90;99.90;;;;;;5070989;28;20117;-60
2023/09/07 00:04:22;;;;;;;5.90;3.03;;;22.90;99.90;;;;;;5070956;28;20044;-61
2023/09/07 00:06:49;;;;;;;6.95;3.05;;;22.80;99.90;;;;;;5070827;28;20036;-59
2023/09/07 00:09:18;;;;;;;5.47;3.03;;;22.80;99.90;;;;;;5069385;28;20517;-60
2023/09/07 00:11:45;;;;;;;8.00;3.05;;;22.70;99.90;;;;;;5069740;28;20044;-61
2023/09/07 00:14:10;;;;;;;8.63;2.72;;;22.70;99.90;;;;;;5071132;28;20049;-61
2023/09/07 00:16:38;;;;;;;6.20;3.15;;;22.70;99.90;;;;;;5069945;28;20052;-61
2023/09/07 00:19:04;;;;;;;6.13;3.08;;;22.60;99.90;;;;;;5069312;28;20040;-62
2023/09/07 00:21:30;;;;;;;5.28;2.92;;;22.60;99.90;;;;;;5070933;28;20512;-60
2023/09/07 00:23:56;;;;;;;5.03;3.15;;;22.60;99.90;;;;;;5069677;28;20041;-58
2023/09/07 00:26:22;;;;;;;5.68;2.88;;;22.50;99.90;;;;;;5070564;28;20033;-59
2023/09/07 00:28:48;;;;;;;7.88;2.80;;;22.50;99.90;;;;;;5070984;28;20103;-68
2023/09/07 00:31:13;;;;;;;7.25;3.15;;;22.50;99.90;;;;;;5070501;28;20029;-61
2023/09/07 00:33:39;;;;;;;5.00;3.10;;;22.40;99.90;;;;;;5070732;28;20094;-60
2023/09/07 00:36:05;;;;;;;7.65;2.90;;;22.40;99.90;;;;;;5070661;28;20082;-58
2023/09/07 00:38:31;;;;;;;6.63;3.25;;;22.30;99.90;;;;;;5070071;28;20049;-61
2023/09/07 00:40:56;;;;;;;8.60;3.40;;;22.30;99.90;;;;;;5070794;28;20511;-60
2023/09/07 00:43:22;;;;;;;5.72;3.15;;;22.30;99.90;;;;;;5070321;28;20450;-60
2023/09/07 00:45:49;;;;;;;5.72;3.20;;;22.30;99.90;;;;;;5070716;28;20059;-60
2023/09/07 00:48:16;;;;;;;5.32;3.15;;;22.20;99.90;;;;;;5070652;28;20040;-61
2023/09/07 00:50:43;;;;;;;4.50;3.20;;;22.20;99.90;;;;;;5070587;28;20483;-61
2023/09/07 00:53:10;;;;;;;5.18;2.63;;;22.10;99.90;;;;;;5070436;28;20471;-61
2023/09/07 00:55:36;;;;;;;6.80;3.58;;;22.10;99.90;;;;;;5070656;28;20087;-59
2023/09/07 00:58:04;;;;;;;6.90;3.00;;;22.10;99.90;;;;;;5069865;28;20040;-60
2023/09/07 01:00:30;;;;;;;5.88;3.30;;;22.00;99.90;;;;;;5070416;28;20568;-60
2023/09/07 01:02:56;;;;;;;4.88;3.38;;;22.00;99.90;;;;;;5070285;28;20050;-59
2023/09/07 01:05:32;;;;;;;5.35;3.13;;;21.90;99.90;;;;;;5070171;28;20575;-61
2023/09/07 01:08:06;;;;;;;6.07;3.40;;;22.00;99.90;;;;;;5069153;28;20407;-61
2023/09/07 01:10:32;;;;;;;5.93;3.33;;;21.90;99.90;;;;;;5070418;28;20488;-62
2023/09/07 01:12:57;;;;;;;7.10;3.53;;;21.80;99.90;;;;;;5070001;28;20040;-61
2023/09/07 01:15:23;;;;;;;5.40;3.53;;;21.80;99.90;;;;;;5070283;28;20032;-59
2023/09/07 01:17:50;;;;;;;5.85;3.80;;;21.80;99.90;;;;;;5070497;28;20045;-60
2023/09/07 01:20:17;;;;;;;6.50;3.67;;;21.70;99.90;;;;;;5070153;28;20040;-59
2023/09/07 01:22:43;;;;;;;9.25;4.20;;;21.70;99.90;;;;;;5070199;28;20048;-60
2023/09/07 01:25:09;;;;;;;5.15;3.63;;;21.60;99.90;;;;;;5069866;28;20249;-61
2023/09/07 01:27:35;;;;;;;6.18;3.40;;;21.60;99.90;;;;;;5071549;28;20039;-61
2023/09/07 01:30:02;;;;;;;5.53;3.65;;;21.50;99.90;;;;;;5073891;28;20028;-62
2023/09/07 01:32:28;;;;;;;7.72;3.92;;;21.50;99.90;;;;;;5071194;28;20043;-59
2023/09/07 01:34:57;;;;;;;8.13;3.53;;;21.50;99.90;;;;;;5073847;28;20052;-59
2023/09/07 01:37:24;;;;;;;6.53;4.07;;;21.50;99.90;;;;;;5073438;28;20541;-59
2023/09/07 01:39:50;;;;;;;6.40;3.40;;;21.40;99.90;;;;;;5072927;28;20044;-59
2023/09/07 01:42:15;;;;;;;7.40;3.90;;;21.40;99.90;;;;;;5073783;28;20044;-61
2023/09/07 01:44:43;;;;;;;7.32;3.53;;;21.30;99.90;;;;;;5073339;28;20070;-60
2023/09/07 01:47:08;;;;;;;5.78;3.80;;;21.30;99.90;;;;;;5073785;28;20043;-62
2023/09/07 01:49:34;;;;;;;5.90;3.80;;;21.20;99.90;;;;;;5073457;28;20039;-60
2023/09/07 01:52:00;;;;;;;8.07;3.75;;;21.20;99.90;;;;;;5073485;28;20028;-60
2023/09/07 01:54:25;;;;;;;9.45;4.13;;;21.20;99.90;;;;;;5055134;28;20423;-61
2023/09/07 01:56:51;;;;;;;5.80;3.60;;;21.20;99.90;;;;;;5073549;28;20094;-60
2023/09/07 01:59:17;;;;;;;6.80;4.05;;;21.20;99.90;;;;;;5073196;28;20032;-61
2023/09/07 02:01:42;;;;;;;6.22;3.75;;;21.10;99.90;;;;;;5072957;28;20047;-62
2023/09/07 02:04:08;;;;;;;9.10;4.03;;;21.10;99.90;;;;;;5072937;28;20476;-60
2023/09/07 02:06:34;;;;;;;6.30;3.80;;;21.10;99.90;;;;;;5073069;28;20143;-60
2023/09/07 02:09:00;;;;;;;7.75;3.85;;;21.10;99.90;;;;;;5071973;28;20036;-60
2023/09/07 02:11:26;;;;;;;5.85;3.85;;;21.10;99.90;;;;;;5071646;28;20392;-60
2023/09/07 02:13:52;;;;;;;9.15;3.75;;;21.00;99.90;;;;;;5071977;28;20056;-59
2023/09/07 02:16:18;;;;;;;6.43;3.97;;;20.90;99.90;;;;;;5072102;28;20082;-62
2023/09/07 02:18:45;;;;;;;6.97;3.90;;;20.90;99.90;;;;;;5070832;28;20442;-60
2023/09/07 02:21:11;;;;;;;6.68;3.85;;;20.90;99.90;;;;;;5071767;28;20024;-60
2023/09/07 02:23:37;;;;;;;6.13;3.70;;;20.80;99.90;;;;;;5069689;28;20049;-61
2023/09/07 02:26:03;;;;;;;6.20;3.80;;;20.80;99.90;;;;;;5071189;28;20040;-58
2023/09/07 02:28:29;;;;;;;6.80;4.18;;;20.80;99.90;;;;;;5071602;28;20028;-61
2023/09/07 02:31:01;;;;;;;8.32;4.20;;;20.80;99.90;;;;;;5070168;28;20395;-60
2023/09/07 02:33:28;;;;;;;5.90;4.00;;;20.70;99.90;;;;;;5072119;28;20043;-61
2023/09/07 02:35:53;;;;;;;6.25;3.95;;;20.70;99.90;;;;;;5071771;28;20047;-61
2023/09/07 02:38:19;;;;;;;6.68;4.00;;;20.60;99.90;;;;;;5070057;28;20048;-58
2023/09/07 02:40:45;;;;;;;7.65;3.92;;;20.60;99.90;;;;;;5072286;28;20033;-59
2023/09/07 02:43:11;;;;;;;6.07;4.00;;;20.60;99.90;;;;;;5071200;28;20036;-60
2023/09/07 02:45:38;;;;;;;5.78;3.90;;;20.60;99.90;;;;;;5072254;28;20028;-60
2023/09/07 02:48:05;;;;;;;8.25;4.28;;;20.50;99.90;;;;;;5072376;28;20255;-58
2023/09/07 02:50:33;;;;;;;8.05;4.10;;;20.50;99.90;;;;;;5072065;28;20111;-60
2023/09/07 02:53:00;;;;;;;6.18;4.15;;;20.50;99.90;;;;;;5072273;28;20044;-60
2023/09/07 02:55:26;;;;;;;7.88;4.00;;;20.50;99.90;;;;;;5072409;28;20525;-60
2023/09/07 02:57:52;;;;;;;6.93;4.20;;;20.40;99.90;;;;;;5072166;28;20044;-60
2023/09/07 03:00:18;;;;;;;8.30;4.30;;;20.50;99.90;;;;;;5072090;28;20494;-60
2023/09/07 03:02:44;;;;;;;8.05;4.47;;;20.40;99.90;;;;;;5071437;28;20438;-61
2023/09/07 03:05:10;;;;;;;9.10;4.10;;;20.40;99.90;;;;;;5070809;28;20040;-58
2023/09/07 03:07:36;;;;;;;7.50;4.05;;;20.30;99.90;;;;;;5071663;28;20052;-61
2023/09/07 03:10:01;;;;;;;7.28;3.75;;;20.30;99.90;;;;;;5070999;28;20078;-61
2023/09/07 03:12:27;;;;;;;6.57;4.05;;;20.30;99.90;;;;;;5071397;28;20045;-60
2023/09/07 03:14:53;;;;;;;6.78;4.03;;;20.30;99.90;;;;;;5071867;28;20039;-58
2023/09/07 03:17:20;;;;;;;9.55;4.30;;;20.20;99.90;;;;;;5070640;28;20490;-60
2023/09/07 03:19:47;;;;;;;5.40;4.13;;;20.20;99.90;;;;;;5071396;28;20097;-61
2023/09/07 03:22:13;;;;;;;5.75;4.30;;;20.20;99.90;;;;;;5071798;28;20041;-62
2023/09/07 03:24:39;;;;;;;6.22;4.13;;;20.20;99.90;;;;;;5071244;28;20053;-61
2023/09/07 03:27:05;;;;;;;5.88;4.43;;;20.20;99.90;;;;;;5070486;28;20032;-59
2023/09/07 03:29:33;;;;;;;7.18;4.40;;;20.10;99.90;;;;;;5071624;28;20093;-61
2023/09/07 03:31:59;;;;;;;6.38;4.55;;;20.10;99.90;;;;;;5071561;28;20056;-59
2023/09/07 03:34:25;;;;;;;7.00;4.03;;;20.10;99.90;;;;;;5071520;28;20036;-60
2023/09/07 03:36:51;;;;;;;7.00;4.28;;;20.00;99.90;;;;;;5071057;28;20047;-61
2023/09/07 03:39:18;;;;;;;7.22;4.50;;;20.00;99.90;;;;;;5071171;28;20487;-60
2023/09/07 03:41:44;;;;;;;6.00;4.25;;;20.00;99.90;;;;;;5070869;28;20433;-61
2023/09/07 03:44:10;;;;;;;7.60;4.78;;;19.90;99.90;;;;;;5068499;28;20082;-60
2023/09/07 03:46:36;;;;;;;7.50;4.70;;;19.90;99.90;;;;;;5070428;28;20033;-61
2023/09/07 03:49:02;;;;;;;5.78;4.18;;;19.90;99.90;;;;;;5070637;28;20468;-58
2023/09/07 03:51:28;;;;;;;6.10;4.55;;;19.80;99.90;;;;;;5070886;28;20484;-59
2023/09/07 03:53:54;;;;;;;8.10;4.40;;;19.90;99.90;;;;;;5070995;28;20054;-61
2023/09/07 03:56:19;;;;;;;8.73;5.10;;;19.80;99.90;;;;;;5069955;28;20036;-61
2023/09/07 03:58:47;;;;;;;7.35;5.28;;;19.80;99.90;;;;;;5070221;28;20047;-59
2023/09/07 04:01:13;;;;;;;8.23;5.25;;;19.70;99.90;;;;;;5069482;28;20466;-61
2023/09/07 04:03:40;;;;;;;6.72;4.72;;;19.70;99.90;;;;;;5070092;28;20136;-60
2023/09/07 04:06:06;;;;;;;7.88;5.30;;;19.70;99.90;;;;;;5069973;28;20040;-60
2023/09/07 04:08:32;;;;;;;7.45;4.88;;;19.60;99.90;;;;;;5068943;28;20094;-61
2023/09/07 04:10:58;;;;;;;6.85;4.60;;;19.60;99.90;;;;;;5070333;28;20068;-59
2023/09/07 04:13:23;;;;;;;8.75;4.85;;;19.60;99.90;;;;;;5070625;28;20110;-60
2023/09/07 04:15:49;;;;;;;6.07;4.50;;;19.60;99.90;;;;;;5070757;28;20044;-59
2023/09/07 04:18:16;;;;;;;8.38;5.10;;;19.50;99.90;;;;;;5070845;28;20044;-61
2023/09/07 04:20:43;;;;;;;6.38;4.60;;;19.50;99.90;;;;;;5071007;28;20082;-62
2023/09/07 04:23:09;;;;;;;7.18;4.80;;;19.50;99.90;;;;;;5070696;28;20045;-58
2023/09/07 04:25:34;;;;;;;7.15;5.07;;;19.40;99.90;;;;;;5070786;28;20064;-61
2023/09/07 04:28:00;;;;;;;6.43;4.85;;;19.40;99.90;;;;;;5070900;28;20071;-60
2023/09/07 04:30:26;;;;;;;7.10;4.95;;;19.40;99.90;;;;;;5069192;28;20037;-58
2023/09/07 04:32:52;;;;;;;10.85;5.38;;;19.40;99.90;;;;;;5069287;28;20123;-61
2023/09/07 04:35:18;;;;;;;7.28;4.75;;;19.40;99.90;;;;;;5070271;28;20575;-60
2023/09/07 04:37:44;;;;;;;8.68;5.03;;;19.30;99.90;;;;;;5069018;28;20415;-60
2023/09/07 04:40:11;;;;;;;8.20;5.07;;;19.30;99.90;;;;;;5068852;28;20041;-61
2023/09/07 04:42:38;;;;;;;8.63;5.28;;;19.20;99.90;;;;;;5068897;28;20037;-58
2023/09/07 04:45:05;;;;;;;7.75;4.82;;;19.20;99.90;;;;;;5070739;28;20024;-58
2023/09/07 04:47:31;;;;;;;7.82;4.90;;;19.10;99.90;;;;;;5069587;28;20047;-58
2023/09/07 04:49:57;;;;;;;8.70;5.45;;;19.10;99.90;;;;;;5068405;28;20452;-59
2023/09/07 04:52:23;;;;;;;7.88;5.38;;;19.00;99.90;;;;;;5070378;28;20032;-60
2023/09/07 04:54:49;;;;;;;9.20;5.40;;;19.00;99.90;;;;;;5070367;28;20036;-59
2023/09/07 04:57:19;;;;;;;8.73;5.80;;;18.90;99.90;;;;;;5070658;28;20411;-58
2023/09/07 04:59:45;;;;;;;7.55;5.30;;;18.90;99.90;;;;;;5070400;28;20076;-58
2023/09/07 05:02:12;;;;;;;7.53;5.47;;;18.90;99.90;;;;;;5071353;28;20114;-59
2023/09/07 05:04:38;;;;;;;7.30;5.40;;;18.90;99.90;;;;;;5073821;28;20059;-61
2023/09/07 05:07:04;;;;;;;7.75;5.47;;;18.80;99.90;;;;;;5071988;28;20383;-60
2023/09/07 05:09:30;;;;;;;8.48;5.90;;;18.80;99.90;;;;;;5073851;28;20037;-61
2023/09/07 05:11:56;;;;;;;8.80;5.47;;;18.80;99.90;;;;;;5072683;28;20119;-61
2023/09/07 05:14:25;;;;;;;11.32;5.32;;;18.80;99.90;;;;;;5073486;28;20165;-58
2023/09/07 05:16:51;;;;;;;9.27;5.80;;;18.80;99.90;;;;;;5074329;28;20049;-61
2023/09/07 05:19:16;;;;;;;8.35;5.82;;;18.80;99.90;;;;;;5072435;28;20043;-59
2023/09/07 05:21:42;;;;;;;7.55;5.30;;;18.80;99.90;;;;;;5074014;28;20083;-61
2023/09/07 05:24:08;;;;;;;9.40;5.93;;;18.70;99.90;;;;;;5073538;28;20073;-59
2023/09/07 05:26:34;;;;;;;10.30;5.88;;;18.70;99.90;;;;;;5073712;28;20064;-60
2023/09/07 05:29:00;;;;;;;8.55;5.53;;;18.70;99.90;;;;;;5073749;28;20049;-59
2023/09/07 05:31:26;;;;;;;9.23;5.50;;;18.70;99.90;;;;;;5073738;28;20490;-61
2023/09/07 05:33:52;;;;;;;8.25;6.05;;;18.70;99.90;;;;;;5073468;28;20464;-61
2023/09/07 05:36:18;;;;;;;7.47;5.32;;;18.70;99.90;;;;;;5072056;28;20098;-60
2023/09/07 05:38:44;;;;;;;9.93;5.80;;;18.70;99.90;;;;;;5073139;28;20500;-60
2023/09/07 05:41:10;;;;;;;11.00;6.20;;;18.70;99.90;;;;;;5073554;28;20041;-61
2023/09/07 05:43:36;;;;;;;10.65;5.88;;;18.70;99.90;;;;;;5073574;28;20036;-61
2023/09/07 05:46:02;;;;;;;11.05;6.10;;;18.70;99.90;;;;;;5073648;28;20033;-60
2023/09/07 05:48:28;;;;;;;9.32;5.53;;;18.70;99.90;;;;;;5072147;28;20041;-61
2023/09/07 05:50:54;;;;;;;7.22;5.32;;;18.70;99.90;;;;;;5073492;28;20043;-60
2023/09/07 05:53:24;;;;;;;7.72;5.53;;;18.70;99.90;;;;;;5072007;28;20036;-60
2023/09/07 05:55:50;;;;;;;7.97;5.97;;;18.80;99.90;;;;;;5073272;28;20044;-60
2023/09/07 05:58:16;;;;;;;9.43;6.00;;;18.80;99.90;;;;;;5071048;28;20033;-61
2023/09/07 06:00:41;;;;;;;10.70;6.15;;;18.80;99.90;;;;;;5073218;28;20041;-59
2023/09/07 06:03:09;;;;;;;10.82;5.80;;;18.80;99.90;;;;;;5072876;28;20378;-60
2023/09/07 06:05:36;;;;;;;7.70;6.22;;;18.80;99.90;;;;;;5071558;28;20043;-60
2023/09/07 06:08:02;;;;;;;8.38;5.65;;;18.90;99.90;;;;;;5073018;28;20041;-59
2023/09/07 06:10:30;;;;;;;8.82;5.90;;;18.90;99.90;;;;;;5072372;28;20029;-60
2023/09/07 06:12:56;;;;;;;9.55;6.28;;;19.00;99.90;;;;;;5071954;28;20043;-58
2023/09/07 06:15:22;;;;;;;9.60;6.43;;;19.00;99.90;;;;;;5072626;28;20044;-61
2023/09/07 06:17:49;;;;;;;7.50;6.18;;;19.10;99.90;;;;;;5072884;28;20045;-60
2023/09/07 06:20:15;;;;;;;10.75;6.45;;;19.10;99.90;;;;;;5073103;28;20135;-61
2023/09/07 06:22:41;;;;;;;10.80;5.93;;;19.10;99.90;;;;;;5072717;28;20395;-60
2023/09/07 06:25:07;;;;;;;8.77;5.97;;;19.20;99.90;;;;;;5069872;28;20051;-58
2023/09/07 06:27:33;;;;;;;8.55;6.00;;;19.20;99.90;;;;;;5072148;28;20533;-59
2023/09/07 06:29:59;;;;;;;8.15;5.85;;;19.20;99.90;;;;;;5071972;28;20036;-61
2023/09/07 06:32:24;;;;;;;8.95;6.15;;;19.20;99.90;;;;;;5069572;28;20127;-60
2023/09/07 06:34:50;;;;;;;9.68;6.22;;;19.30;99.90;;;;;;5068527;28;20047;-59
2023/09/07 06:37:16;;;;;;;9.27;6.30;;;19.30;99.90;;;;;;5066192;28;20041;-58
2023/09/07 06:39:45;;;;;;;8.93;6.05;;;19.30;99.90;;;;;;5069746;28;20496;-59
2023/09/07 06:42:11;;;;;;;7.47;5.80;;;19.40;99.90;;;;;;5066431;28;20037;-63
2023/09/07 06:44:36;;;;;;;8.77;5.78;;;19.40;99.90;;;;;;5044619;28;20450;-62
2023/09/07 06:47:02;;;;;;;8.55;6.05;;;19.40;99.90;;;;;;5050890;28;20029;-60
2023/09/07 06:49:32;;;;;;;10.77;6.07;;;19.40;99.90;;;;;;5063737;28;20072;-60
2023/09/07 06:51:58;;;;;;;6.93;5.90;;;19.50;99.90;;;;;;5060432;28;20108;-61
2023/09/07 06:54:23;;;;;;;7.85;6.05;;;19.50;99.90;;;;;;5064123;28;20131;-60
2023/09/07 06:56:49;;;;;;;9.68;6.18;;;19.50;99.90;;;;;;5064143;28;20458;-59
2023/09/07 06:59:15;;;;;;;9.73;6.55;;;19.60;99.90;;;;;;5062817;28;20044;-59
2023/09/07 07:01:41;;;;;;;8.00;6.00;;;19.60;99.90;;;;;;5063917;28;20063;-61
2023/09/07 07:04:08;;;;;;;9.65;5.97;;;19.60;99.90;;;;;;5063890;28;20392;-61
2023/09/07 07:06:34;;;;;;;8.95;6.20;;;19.70;99.90;;;;;;5063656;28;20454;-61
2023/09/07 07:08:59;;;;;;;8.63;6.45;;;19.80;99.90;;;;;;5060855;28;20094;-60
2023/09/07 07:11:25;;;;;;;10.07;6.10;;;19.80;99.90;;;;;;5062012;28;20688;-59
2023/09/07 07:13:51;;;;;;;7.55;5.60;;;19.80;99.90;;;;;;5061947;28;20105;-61
2023/09/07 07:16:17;;;;;;;10.48;6.10;;;19.90;99.90;;;;;;5057994;28;20079;-62
2023/09/07 07:18:42;;;;;;;7.88;6.00;;;19.90;99.90;;;;;;5051579;28;20090;-57
2023/09/07 07:21:09;;;;;;;8.07;6.03;;;20.00;99.90;;;;;;5052690;28;20101;-60
2023/09/07 07:23:35;;;;;;;10.25;6.18;;;20.10;99.90;;;;;;5062424;28;20033;-59
2023/09/07 07:26:01;;;;;;;10.43;6.70;;;20.10;99.90;;;;;;5061023;28;20500;-59
2023/09/07 07:28:26;;;;;;;9.93;6.22;;;20.20;99.90;;;;;;5060411;28;20161;-60
2023/09/07 07:30:53;;;;;;;7.57;6.43;;;20.20;99.90;;;;;;5062381;28;20086;-61
2023/09/07 07:33:19;;;;;;;9.48;6.20;;;20.20;99.90;;;;;;5060877;28;20476;-58
2023/09/07 07:35:45;;;;;;;9.02;5.88;;;20.30;99.90;;;;;;5063596;28;20041;-58
2023/09/07 07:38:13;;;;;;;9.77;6.82;;;20.30;99.90;;;;;;5061465;28;20049;-60
2023/09/07 07:40:39;;;;;;;9.85;6.05;;;20.40;99.90;;;;;;5061618;28;20113;-60
2023/09/07 07:43:06;;;;;;;7.72;6.13;;;20.50;99.90;;;;;;5061967;28;20119;-61
2023/09/07 07:45:36;;;;;;;7.93;5.93;;;20.50;99.90;;;;;;5061443;28;20167;-60
2023/09/07 07:48:05;;;;;;;12.05;6.30;;;20.60;99.90;;;;;;5062235;28;20123;-60
2023/09/07 07:50:31;;;;;;;9.32;6.07;;;20.60;99.90;;;;;;5061776;28;20511;-60
2023/09/07 07:52:57;;;;;;;9.38;6.40;;;20.70;99.90;;;;;;5060883;28;20037;-60
2023/09/07 07:55:23;;;;;;;10.27;6.57;;;20.70;99.90;;;;;;5060997;28;20545;-60
2023/09/07 07:57:48;;;;;;;8.65;6.55;;;20.80;99.90;;;;;;5062665;28;20040;-60
2023/09/07 08:00:14;;;;;;;8.88;5.85;;;20.90;99.90;;;;;;5057871;28;20467;-61
2023/09/07 08:02:40;;;;;;;9.23;5.90;;;20.90;99.90;;;;;;5061864;28;20047;-61
2023/09/07 08:05:06;;;;;;;8.50;6.20;;;20.90;99.90;;;;;;5061790;28;20040;-59
2023/09/07 08:07:32;;;;;;;11.27;6.40;;;21.00;99.90;;;;;;5062222;28;20031;-60
2023/09/07 08:09:58;;;;;;;9.07;5.82;;;21.10;99.90;;;;;;5061849;28;20032;-61
2023/09/07 08:12:23;;;;;;;8.65;6.60;;;21.20;99.90;;;;;;5058593;28;20570;-58
2023/09/07 08:14:49;;;;;;;10.35;6.43;;;21.20;99.90;;;;;;5067313;28;20048;-60
2023/09/07 08:17:15;;;;;;;7.75;5.97;;;21.30;99.90;;;;;;5067108;28;20036;-61
2023/09/07 08:19:40;;;;;;;10.43;6.47;;;21.30;99.90;;;;;;5070430;28;20044;-61
2023/09/07 08:22:07;;;;;;;9.18;5.88;;;21.40;99.90;;;;;;5069522;28;20036;-60
2023/09/07 08:24:33;;;;;;;10.13;6.57;;;21.50;99.90;;;;;;5070580;28;21022;-60
2023/09/07 08:27:00;;;;;;;9.98;6.25;;;21.50;99.90;;;;;;5070633;28;20037;-58
2023/09/07 08:29:26;;;;;;;7.68;5.82;;;21.60;99.90;;;;;;5070685;28;20045;-59
2023/09/07 08:31:53;;;;;;;7.22;5.70;;;21.70;99.90;;;;;;5069487;28;20106;-60
2023/09/07 08:34:20;;;;;;;8.05;5.43;;;21.70;99.90;;;;;;5070742;28;20037;-60
2023/09/07 08:36:47;;;;;;;10.23;6.18;;;21.80;99.90;;;;;;5071607;28;20047;-60
2023/09/07 08:39:13;;;;;;;8.32;5.68;;;21.90;99.90;;;;;;5074018;28;20118;-61
2023/09/07 08:41:46;;;;;;;9.15;6.07;;;22.00;99.90;;;;;;5074696;28;20048;-59
2023/09/07 08:44:22;;;;;;;10.15;6.32;;;22.10;99.90;;;;;;5074777;28;20067;-60
2023/09/07 08:46:51;;;;;;;10.25;5.75;;;22.20;99.90;;;;;;5074585;28;20040;-55
2023/09/07 08:49:20;;;;;;;14.25;5.82;;;22.30;99.90;;;;;;5068799;28;20047;-58
2023/09/07 08:51:46;;;;;;;10.63;6.30;;;22.40;99.90;;;;;;5074716;28;20048;-60
2023/09/07 08:54:12;;;;;;;11.02;6.43;;;22.40;99.90;;;;;;5073552;28;20079;-60
2023/09/07 08:56:38;;;;;;;8.15;5.80;;;22.50;99.90;;;;;;5072337;28;20036;-58
2023/09/07 08:59:04;;;;;;;9.40;6.38;;;22.50;99.90;;;;;;5070278;28;20036;-60
2023/09/07 09:01:31;;;;;;;8.90;5.75;;;22.70;99.90;;;;;;5069677;28;20849;-59
2023/09/07 09:04:00;;;;;;;10.25;6.15;;;22.70;99.90;;;;;;5064312;28;20041;-59
2023/09/07 09:06:26;;;;;;;9.88;5.93;;;22.80;99.90;;;;;;5066320;28;20036;-60
2023/09/07 09:08:54;;;;;;;10.05;6.20;;;23.00;99.90;;;;;;5072080;28;20032;-58
2023/09/07 09:11:21;;;;;;;10.00;6.10;;;23.20;99.90;;;;;;5069295;28;20090;-61
2023/09/07 09:13:48;;;;;;;8.88;5.65;;;23.30;99.90;;;;;;5071974;28;20056;-59
2023/09/07 09:16:14;;;;;;;9.90;6.82;;;23.40;99.90;;;;;;5073852;28;20040;-59
2023/09/07 09:18:57;;;;;;;8.55;6.20;;;23.60;99.90;;;;;;5074021;28;20098;-60
2023/09/07 09:21:27;;;;;;;8.60;5.72;;;23.80;99.90;;;;;;5069977;28;20047;-60
2023/09/07 09:23:54;;;;;;;8.82;5.60;;;23.90;99.90;;;;;;5053236;28;20070;-58
2023/09/07 09:26:21;;;;;;;7.85;5.47;;;24.10;99.90;;;;;;5071850;28;20036;-60
2023/09/07 09:28:47;;;;;;;11.23;6.07;;;24.20;99.90;;;;;;5070290;28;20372;-60
2023/09/07 09:31:14;;;;;;;10.30;6.22;;;24.30;99.90;;;;;;5071475;28;20116;-59
2023/09/07 09:33:48;;;;;;;8.50;5.60;;;24.40;99.90;;;;;;5070874;28;20407;-59
2023/09/07 09:36:14;;;;;;;9.40;6.28;;;24.60;99.90;;;;;;5070840;28;20109;-61
2023/09/07 09:38:40;;;;;;;9.18;6.30;;;24.60;99.90;;;;;;5069415;28;20064;-59
2023/09/07 09:41:08;;;;;;;11.60;5.85;;;24.70;99.90;;;;;;5072689;28;20044;-62
2023/09/07 09:43:34;;;;;;;10.60;5.63;;;24.80;99.90;;;;;;5073200;28;20127;-60
2023/09/07 09:46:00;;;;;;;9.65;6.18;;;24.90;99.90;;;;;;5069999;28;20093;-60
2023/09/07 09:48:28;;;;;;;7.03;5.70;;;25.00;99.90;;;;;;5071476;28;21225;-59
2023/09/07 09:50:53;;;;;;;10.10;5.47;;;25.10;99.90;;;;;;5072766;28;20150;-60
2023/09/07 09:53:20;;;;;;;8.63;5.22;;;25.10;99.90;;;;;;5067390;28;20045;-57
2023/09/07 09:55:52;;;;;;;8.90;5.70;;;25.20;99.90;;;;;;5071566;28;20041;-59
2023/09/07 09:58:18;;;;;;;13.35;5.70;;;25.20;99.90;;;;;;5072883;28;20470;-58
2023/09/07 10:00:50;;;;;;;8.02;5.28;;;25.30;99.90;;;;;;5072141;28;20040;-59
2023/09/07 10:03:23;;;;;;;11.00;5.28;;;25.40;99.90;;;;;;5071063;28;20056;-60
2023/09/07 10:05:49;;;;;;;10.10;5.78;;;25.50;99.90;;;;;;5071032;28;20125;-57
2023/09/07 10:08:17;;;;;;;10.43;5.30;;;25.50;99.90;;;;;;5071666;28;20044;-58
2023/09/07 10:10:46;;;;;;;8.00;5.18;;;25.60;99.90;;;;;;5070865;28;20072;-60
2023/09/07 10:13:14;;;;;;;8.38;4.78;;;25.70;99.90;;;;;;5071244;28;20115;-61
2023/09/07 10:15:40;;;;;;;6.82;4.63;;;25.80;99.90;;;;;;5071016;28;20048;-59
2023/09/07 10:18:10;;;;;;;7.30;4.68;;;25.90;99.90;;;;;;5071339;28;20052;-59
2023/09/07 10:20:51;;;;;;;8.38;4.88;;;25.90;99.90;;;;;;5069371;28;20094;-57
2023/09/07 10:23:18;;;;;;;9.57;4.38;;;25.90;99.90;;;;;;5071830;28;20476;-58
2023/09/07 10:25:50;;;;;;;7.05;4.70;;;26.00;99.90;;;;;;5070441;28;20058;-59
2023/09/07 10:28:24;;;;;;;8.70;4.80;;;26.10;99.90;;;;;;5069547;28;20037;-59
2023/09/07 10:31:06;;;;;;;7.80;4.70;;;26.20;99.90;;;;;;5072476;28;20032;-59
2023/09/07 10:33:35;;;;;;;8.32;4.75;;;26.30;99.90;;;;;;5070936;28;20087;-59
2023/09/07 10:36:03;;;;;;;8.13;4.80;;;26.50;99.90;;;;;;5069811;28;20051;-60
2023/09/07 10:38:34;;;;;;;8.38;4.20;;;26.50;99.90;;;;;;5071472;28;20087;-59
2023/09/07 10:41:03;;;;;;;8.00;4.80;;;26.50;99.90;;;;;;5067338;28;20515;-61
2023/09/07 10:43:33;;;;;;;6.53;4.10;;;26.60;99.90;;;;;;5052071;28;20399;-62
2023/09/07 10:46:00;;;;;;;9.57;4.25;;;26.70;99.90;;;;;;5056452;28;20093;-59
2023/09/07 10:48:29;;;;;;;8.48;4.32;;;26.80;99.90;;;;;;5070597;28;20032;-59
2023/09/07 10:50:56;;;;;;;8.23;4.40;;;26.80;99.90;;;;;;5070537;28;20037;-60
2023/09/07 10:53:32;;;;;;;7.85;4.22;;;27.00;99.90;;;;;;5068492;28;20068;-60
2023/09/07 10:56:05;;;;;;;5.63;3.90;;;27.10;99.90;;;;;;5067381;28;20499;-59
2023/09/07 10:58:40;;;;;;;7.33;4.20;;;27.20;99.90;;;;;;5068889;28;20040;-60
2023/09/07 11:01:07;;;;;;;7.47;4.60;;;27.40;99.90;;;;;;5067754;28;20098;-59
2023/09/07 11:03:33;;;;;;;6.07;4.00;;;27.50;99.90;;;;;;5067698;28;21279;-60
2023/09/07 11:06:03;;;;;;;6.43;4.03;;;27.50;99.90;;;;;;5067102;28;20035;-61
2023/09/07 11:08:29;;;;;;;9.25;4.18;;;27.60;99.90;;;;;;5069285;28;20048;-63
2023/09/07 11:10:55;;;;;;;6.47;4.03;;;27.80;99.90;;;;;;5068241;28;20024;-57
2023/09/07 11:13:25;;;;;;;6.30;3.78;;;27.90;99.90;;;;;;5069628;28;20036;-57
2023/09/07 11:15:54;;;;;;;5.50;3.42;;;28.10;99.90;;;;;;5068220;28;20079;-60
2023/09/07 11:18:23;;;;;;;5.47;3.13;;;28.20;99.90;;;;;;5067993;28;20457;-61
2023/09/07 11:20:50;;;;;;;8.02;3.70;;;28.40;99.90;;;;;;5069618;28;20095;-59
2023/09/07 11:23:20;;;;;;;5.47;3.20;;;28.50;99.90;;;;;;5067521;28;20036;-60
2023/09/07 11:25:50;;;;;;;6.05;3.42;;;28.60;99.90;;;;;;5069199;28;20044;-60
2023/09/07 11:28:18;;;;;;;6.18;3.05;;;28.70;99.90;;;;;;5069416;28;20067;-59
2023/09/07 11:30:55;;;;;;;7.18;3.30;;;28.70;99.90;;;;;;5069623;28;20586;-59
2023/09/07 11:33:22;;;;;;;5.55;2.90;;;28.90;99.90;;;;;;5067984;28;20123;-60
2023/09/07 11:35:48;;;;;;;6.13;3.33;;;28.90;99.90;;;;;;5068622;28;20089;-58
2023/09/07 11:38:16;;;;;;;6.00;3.30;;;29.10;99.90;;;;;;5066499;28;20124;-59
2023/09/07 11:40:44;;;;;;;8.70;3.65;;;29.20;99.90;;;;;;5065763;28;20123;-60
2023/09/07 11:43:12;;;;;;;5.57;2.88;;;29.30;99.90;;;;;;5068124;28;20132;-60
2023/09/07 11:45:39;;;;;;;7.45;3.40;;;29.40;99.90;;;;;;5066016;28;20079;-60
2023/09/07 11:48:05;;;;;;;6.82;2.95;;;29.50;99.90;;;;;;5069343;28;20040;-61
2023/09/07 11:50:31;;;;;;;7.57;3.30;;;29.70;99.90;;;;;;5069258;28;20120;-59
2023/09/07 11:52:56;;;;;;;4.40;3.08;;;29.80;99.80;;;;;;5066997;28;20124;-62
2023/09/07 11:55:22;;;;;;;4.75;2.72;;;29.90;99.70;;;;;;5068242;28;20048;-60
2023/09/07 11:57:48;;;;;;;6.32;2.95;;;30.00;99.40;;;;;;5067646;28;20090;-61
2023/09/07 12:00:14;;;;;;;5.97;2.80;;;30.10;99.00;;;;;;5067605;28;20492;-61
2023/09/07 12:02:41;;;;;;;7.82;3.15;;;30.20;98.70;;;;;;5066022;28;20123;-59
2023/09/07 12:05:09;;;;;;;6.65;3.15;;;30.30;98.40;;;;;;5066893;28;20036;-59
2023/09/07 12:07:35;;;;;;;5.90;2.70;;;30.40;98.30;;;;;;5068944;28;20106;-60
2023/09/07 12:10:01;;;;;;;6.38;3.15;;;30.50;97.80;;;;;;5066171;28;20029;-59
2023/09/07 12:12:27;;;;;;;7.65;3.28;;;30.50;98.00;;;;;;5067876;28;20113;-61
2023/09/07 12:14:53;;;;;;;5.05;3.13;;;30.60;98.30;;;;;;5067774;28;20040;-61
2023/09/07 12:17:19;;;;;;;5.20;2.90;;;30.70;97.90;;;;;;5067401;28;20067;-59
2023/09/07 12:19:45;;;;;;;5.97;3.25;;;30.90;97.50;;;;;;5067051;28;20044;-61
2023/09/07 12:22:12;;;;;;;6.93;3.13;;;31.00;97.00;;;;;;5066902;28;20036;-59
2023/09/07 12:24:38;;;;;;;7.05;3.00;;;31.10;96.70;;;;;;5064508;28;20392;-60
2023/09/07 12:27:04;;;;;;;5.72;3.03;;;31.20;96.30;;;;;;5066582;28;20037;-60
2023/09/07 12:29:29;;;;;;;4.60;2.72;;;31.30;95.70;;;;;;5066687;28;20033;-60
2023/09/07 12:31:55;;;;;;;5.03;2.80;;;31.40;95.60;;;;;;5067444;28;20036;-60
2023/09/07 12:34:21;;;;;;;5.53;3.10;;;31.50;95.30;;;;;;5067006;28;20396;-60
2023/09/07 12:36:47;;;;;;;7.78;3.30;;;31.50;95.30;;;;;;5068532;28;20044;-60
2023/09/07 12:39:13;;;;;;;9.77;3.03;;;31.60;95.30;;;;;;5067060;28;20163;-63
2023/09/07 12:41:40;;;;;;;5.75;3.17;;;31.60;95.10;;;;;;5066790;28;20120;-60
2023/09/07 12:44:06;;;;;;;5.20;2.65;;;31.80;95.40;;;;;;5067766;28;20045;-59